Time;durP1;ratioP1;P1;durP2;ratioP2;P2;SDS_P1;SDS_P2;PMS_P1;PMS_P2;Temp;Humidity;BMP_temperature;BMP_pressure;BME280_temperature;BME280_humidity;BME280_pressure;Samples;Min_cycle;Max_cycle;Signal;HPM_P1;HPM_P2
2021/09/23 00:02:06;;;;;;;5.68;4.55;;;;;;;;;;5004742;28;20461;-81
2021/09/23 00:04:34;;;;;;;6.80;4.50;;;;;;;;;;5018059;28;20179;-81
2021/09/23 00:07:01;;;;;;;5.13;4.72;;;;;;;;;;5019794;28;20215;-81
2021/09/23 00:09:27;;;;;;;4.47;4.05;;;;;;;;;;5005484;28;20205;-81
2021/09/23 00:11:53;;;;;;;4.63;3.88;;;;;;;;;;5002630;28;20183;-81
2021/09/23 00:14:19;;;;;;;4.37;3.97;;;;;;;;;;4996338;28;20207;-81
2021/09/23 00:16:46;;;;;;;11.00;5.20;;;;;;;;;;5001458;28;20433;-81
2021/09/23 00:19:12;;;;;;;5.75;4.93;;;;;;;;;;5003249;28;20439;-81
2021/09/23 00:21:38;;;;;;;6.28;5.65;;;;;;;;;;5005912;28;20198;-80
2021/09/23 00:24:04;;;;;;;5.70;4.57;;;;;;;;;;5002926;28;20183;-81
2021/09/23 00:26:30;;;;;;;4.82;4.32;;;;;;;;;;5002510;28;20748;-81
2021/09/23 00:28:56;;;;;;;7.68;5.00;;;;;;;;;;5002384;28;20187;-81
2021/09/23 00:31:22;;;;;;;4.70;3.85;;;;;;;;;;5019167;28;20207;-81
2021/09/23 00:33:49;;;;;;;8.45;5.38;;;;;;;;;;5003510;28;20183;-81
2021/09/23 00:36:15;;;;;;;6.40;5.30;;;;;;;;;;5001737;28;20186;-81
2021/09/23 00:38:41;;;;;;;5.20;4.70;;;;;;;;;;5002347;28;20187;-81
2021/09/23 00:41:07;;;;;;;9.50;4.10;;;;;;;;;;5002269;28;20189;-82
2021/09/23 00:43:33;;;;;;;5.40;4.55;;;;;;;;;;5016229;28;20446;-81
2021/09/23 00:45:59;;;;;;;4.22;3.83;;;;;;;;;;4998632;28;20310;-81
2021/09/23 00:48:26;;;;;;;5.47;4.97;;;;;;;;;;5004788;28;20167;-81
2021/09/23 00:50:52;;;;;;;4.70;4.30;;;;;;;;;;5000688;28;20183;-81
2021/09/23 00:53:18;;;;;;;6.57;5.32;;;;;;;;;;5002465;28;20194;-81
2021/09/23 00:55:45;;;;;;;7.38;5.40;;;;;;;;;;5001999;28;20186;-81
2021/09/23 00:58:10;;;;;;;6.43;5.03;;;;;;;;;;5002345;28;20191;-81
2021/09/23 01:00:37;;;;;;;5.85;5.28;;;;;;;;;;5005548;28;20542;-81
2021/09/23 01:03:02;;;;;;;5.20;4.70;;;;;;;;;;5002333;28;20592;-81
2021/09/23 01:05:28;;;;;;;7.32;4.40;;;;;;;;;;5016351;28;20298;-81
2021/09/23 01:07:54;;;;;;;4.43;3.90;;;;;;;;;;5004347;28;20185;-81
2021/09/23 01:10:21;;;;;;;5.80;5.10;;;;;;;;;;5001851;28;20183;-81
2021/09/23 01:12:47;;;;;;;5.00;4.50;;;;;;;;;;5003638;28;20446;-81
2021/09/23 01:15:15;;;;;;;5.95;4.63;;;;;;;;;;5007523;28;20631;-81
2021/09/23 01:17:41;;;;;;;5.93;4.95;;;;;;;;;;5002163;28;20176;-81
2021/09/23 01:20:08;;;;;;;7.25;5.40;;;;;;;;;;5001870;28;20191;-81
2021/09/23 01:22:34;;;;;;;7.95;5.10;;;;;;;;;;5002093;28;20430;-81
2021/09/23 01:25:01;;;;;;;8.57;5.10;;;;;;;;;;5002849;28;20187;-81
2021/09/23 01:27:27;;;;;;;7.22;4.85;;;;;;;;;;4997875;28;20175;-81
2021/09/23 01:29:53;;;;;;;5.20;4.70;;;;;;;;;;4999835;28;20226;-80
2021/09/23 01:32:21;;;;;;;6.83;4.70;;;;;;;;;;5000337;28;20830;-80
2021/09/23 01:34:47;;;;;;;5.10;4.60;;;;;;;;;;5002606;28;20521;-81
2021/09/23 01:37:13;;;;;;;5.57;4.95;;;;;;;;;;5001751;28;20213;-81
2021/09/23 01:39:39;;;;;;;5.97;4.45;;;;;;;;;;5005143;28;20687;-81
2021/09/23 01:42:05;;;;;;;5.87;5.30;;;;;;;;;;5003503;28;20198;-81
2021/09/23 01:44:31;;;;;;;7.97;4.80;;;;;;;;;;4996060;28;20525;-81
2021/09/23 01:46:57;;;;;;;6.57;5.28;;;;;;;;;;5000985;28;20270;-82
2021/09/23 01:49:24;;;;;;;6.45;5.05;;;;;;;;;;5001397;28;20188;-81
2021/09/23 01:51:50;;;;;;;6.95;4.85;;;;;;;;;;5018445;28;20183;-81
2021/09/23 01:54:16;;;;;;;4.90;4.38;;;;;;;;;;5003212;28;20201;-81
2021/09/23 01:56:42;;;;;;;4.85;4.35;;;;;;;;;;5000621;28;20194;-81
2021/09/23 01:59:08;;;;;;;5.63;4.82;;;;;;;;;;5000707;28;20202;-81
2021/09/23 02:01:35;;;;;;;5.28;4.78;;;;;;;;;;5000617;28;20179;-81
2021/09/23 02:04:01;;;;;;;6.43;5.45;;;;;;;;;;5001221;28;20191;-81
2021/09/23 02:06:27;;;;;;;6.90;4.60;;;;;;;;;;5001575;28;20532;-81
2021/09/23 02:08:53;;;;;;;5.40;4.63;;;;;;;;;;5001047;28;20193;-81
2021/09/23 02:11:19;;;;;;;5.97;5.07;;;;;;;;;;4994153;28;20184;-81
2021/09/23 02:13:45;;;;;;;6.70;4.35;;;;;;;;;;5000383;28;20446;-82
2021/09/23 02:16:11;;;;;;;4.73;4.23;;;;;;;;;;5000823;28;20987;-80
2021/09/23 02:18:37;;;;;;;7.80;5.13;;;;;;;;;;5004507;28;20449;-81
2021/09/23 02:21:03;;;;;;;5.70;5.10;;;;;;;;;;4997899;28;20420;-82
2021/09/23 02:23:29;;;;;;;7.97;5.20;;;;;;;;;;4996397;28;20191;-81
2021/09/23 02:25:55;;;;;;;4.90;4.50;;;;;;;;;;4999776;28;20211;-82
2021/09/23 02:28:21;;;;;;;5.72;4.30;;;;;;;;;;5010751;28;20187;-82
2021/09/23 02:30:48;;;;;;;6.70;4.97;;;;;;;;;;5002854;28;20180;-81
2021/09/23 02:33:14;;;;;;;6.28;4.65;;;;;;;;;;5002012;28;20445;-81
2021/09/23 02:35:40;;;;;;;7.10;4.70;;;;;;;;;;4995145;28;20186;-81
2021/09/23 02:38:06;;;;;;;5.37;4.77;;;;;;;;;;4998743;28;21022;-82
2021/09/23 02:40:32;;;;;;;4.97;4.35;;;;;;;;;;5013660;28;20842;-81
2021/09/23 02:42:58;;;;;;;6.28;4.90;;;;;;;;;;4999124;28;20199;-82
2021/09/23 02:45:24;;;;;;;5.63;4.68;;;;;;;;;;5006921;28;20235;-82
2021/09/23 02:47:50;;;;;;;5.63;5.03;;;;;;;;;;4999346;28;20197;-81
2021/09/23 02:50:16;;;;;;;5.60;4.50;;;;;;;;;;4998364;28;20191;-81
2021/09/23 02:52:42;;;;;;;5.57;4.43;;;;;;;;;;4999889;28;20260;-81
2021/09/23 02:55:08;;;;;;;5.20;4.00;;;;;;;;;;5000522;28;20445;-82
2021/09/23 02:57:34;;;;;;;6.35;4.70;;;;;;;;;;5003194;28;20442;-82
2021/09/23 03:00:00;;;;;;;6.30;4.65;;;;;;;;;;4999897;28;20248;-82
2021/09/23 03:02:26;;;;;;;5.65;5.15;;;;;;;;;;4997066;28;20195;-81
2021/09/23 03:04:52;;;;;;;4.78;4.28;;;;;;;;;;5001069;28;20183;-81
2021/09/23 03:07:18;;;;;;;4.85;4.30;;;;;;;;;;5000178;28;20207;-82
2021/09/23 03:09:44;;;;;;;8.60;5.57;;;;;;;;;;5000592;28;20178;-81
2021/09/23 03:12:10;;;;;;;7.57;4.83;;;;;;;;;;4998631;28;20954;-81
2021/09/23 03:14:36;;;;;;;7.20;4.57;;;;;;;;;;4999543;28;20470;-81
2021/09/23 03:17:02;;;;;;;6.80;4.50;;;;;;;;;;5000054;28;20528;-81
2021/09/23 03:19:28;;;;;;;6.18;4.40;;;;;;;;;;5016772;28;20454;-81
2021/09/23 03:21:55;;;;;;;6.03;4.85;;;;;;;;;;5001789;28;20186;-81
2021/09/23 03:24:21;;;;;;;7.45;5.43;;;;;;;;;;5004869;28;20663;-81
2021/09/23 03:26:47;;;;;;;7.90;4.85;;;;;;;;;;4997616;28;20622;-82
2021/09/23 03:29:14;;;;;;;5.72;4.80;;;;;;;;;;5005277;28;20195;-81
2021/09/23 03:31:40;;;;;;;5.82;4.15;;;;;;;;;;5003467;28;20175;-81
2021/09/23 03:34:06;;;;;;;6.13;5.20;;;;;;;;;;5014940;28;20213;-81
2021/09/23 03:36:33;;;;;;;6.97;5.13;;;;;;;;;;5001720;28;20433;-81
2021/09/23 03:38:59;;;;;;;5.53;4.57;;;;;;;;;;5005492;28;20229;-82
2021/09/23 03:41:25;;;;;;;5.97;4.72;;;;;;;;;;5002869;28;20187;-82
2021/09/23 03:43:51;;;;;;;5.80;4.50;;;;;;;;;;5003024;28;20223;-81
2021/09/23 03:46:18;;;;;;;6.68;5.10;;;;;;;;;;5018139;28;20254;-82
2021/09/23 03:48:44;;;;;;;7.28;4.03;;;;;;;;;;5021187;28;20179;-81
2021/09/23 03:51:13;;;;;;;7.32;4.55;;;;;;;;;;5005881;28;20175;-81
2021/09/23 03:53:39;;;;;;;4.47;4.07;;;;;;;;;;4994101;28;20801;-80
2021/09/23 03:56:06;;;;;;;8.35;4.85;;;;;;;;;;5002493;28;20183;-81
2021/09/23 03:58:32;;;;;;;4.82;4.30;;;;;;;;;;5003087;28;20194;-81
2021/09/23 04:00:58;;;;;;;5.57;5.07;;;;;;;;;;5019519;28;20211;-81
2021/09/23 04:03:24;;;;;;;6.25;4.60;;;;;;;;;;5005502;28;20437;-81
2021/09/23 04:05:51;;;;;;;7.07;5.00;;;;;;;;;;5001453;28;20254;-81
2021/09/23 04:08:17;;;;;;;5.05;4.00;;;;;;;;;;5004311;28;20441;-80
2021/09/23 04:10:43;;;;;;;5.72;4.85;;;;;;;;;;5017172;28;20183;-81
2021/09/23 04:13:09;;;;;;;5.70;4.78;;;;;;;;;;5017900;28;20198;-81
2021/09/23 04:15:35;;;;;;;4.75;4.35;;;;;;;;;;5021698;28;20171;-81
2021/09/23 04:18:02;;;;;;;7.28;4.75;;;;;;;;;;5002329;28;20183;-81
2021/09/23 04:20:28;;;;;;;5.63;4.75;;;;;;;;;;4998628;28;20661;-81
2021/09/23 04:22:54;;;;;;;6.43;4.72;;;;;;;;;;5019398;28;20211;-82
2021/09/23 04:25:20;;;;;;;9.23;5.00;;;;;;;;;;5015024;28;20694;-82
2021/09/23 04:27:46;;;;;;;6.45;4.63;;;;;;;;;;5019731;28;20172;-81
2021/09/23 04:30:12;;;;;;;7.00;4.73;;;;;;;;;;5003940;28;20183;-81
2021/09/23 04:32:38;;;;;;;5.18;4.68;;;;;;;;;;5001568;28;20446;-81
2021/09/23 04:35:04;;;;;;;12.60;5.00;;;;;;;;;;5002303;28;20191;-81
2021/09/23 04:37:30;;;;;;;4.68;3.88;;;;;;;;;;5011434;28;20433;-81
2021/09/23 04:39:56;;;;;;;5.93;5.15;;;;;;;;;;5018987;28;20190;-81
2021/09/23 04:42:22;;;;;;;6.67;5.97;;;;;;;;;;5003701;28;20238;-81
2021/09/23 04:44:48;;;;;;;9.57;8.10;;;;;;;;;;5002194;28;20473;-81
2021/09/23 04:47:14;;;;;;;7.37;6.63;;;;;;;;;;5000294;28;20208;-81
2021/09/23 04:49:40;;;;;;;7.40;5.60;;;;;;;;;;5001169;28;20450;-81
2021/09/23 04:52:06;;;;;;;10.18;7.47;;;;;;;;;;4997518;28;20593;-82
2021/09/23 04:54:32;;;;;;;6.47;5.75;;;;;;;;;;5002808;28;20266;-81
2021/09/23 04:56:58;;;;;;;8.50;6.07;;;;;;;;;;5001933;28;20214;-81
2021/09/23 04:59:24;;;;;;;5.18;4.68;;;;;;;;;;5001720;28;20464;-82
2021/09/23 05:01:50;;;;;;;5.15;4.70;;;;;;;;;;4992736;28;20183;-82
2021/09/23 05:04:16;;;;;;;8.48;5.07;;;;;;;;;;5003629;28;20795;-81
2021/09/23 05:06:42;;;;;;;5.93;4.65;;;;;;;;;;5004635;28;20234;-81
2021/09/23 05:09:08;;;;;;;4.70;4.30;;;;;;;;;;5005004;28;20179;-81
2021/09/23 05:11:34;;;;;;;5.97;4.53;;;;;;;;;;5001657;28;20190;-81
2021/09/23 05:14:00;;;;;;;7.55;5.47;;;;;;;;;;5001054;28;20478;-82
2021/09/23 05:16:26;;;;;;;6.70;5.47;;;;;;;;;;5000862;28;20187;-82
2021/09/23 05:18:53;;;;;;;8.63;6.33;;;;;;;;;;5004188;28;20175;-81
2021/09/23 05:21:19;;;;;;;4.80;4.30;;;;;;;;;;4994693;28;20414;-81
2021/09/23 05:23:45;;;;;;;6.43;4.55;;;;;;;;;;5013497;28;20187;-81
2021/09/23 05:26:11;;;;;;;6.43;4.60;;;;;;;;;;5002069;28;20202;-81
2021/09/23 05:28:37;;;;;;;5.80;5.20;;;;;;;;;;5000306;28;20715;-81
2021/09/23 05:31:04;;;;;;;6.65;4.30;;;;;;;;;;4990163;28;20443;-81
2021/09/23 05:33:30;;;;;;;6.60;4.80;;;;;;;;;;5005026;28;20175;-82
2021/09/23 05:35:56;;;;;;;5.90;5.30;;;;;;;;;;5002828;28;20219;-82
2021/09/23 05:38:23;;;;;;;6.97;4.90;;;;;;;;;;5000742;28;20238;-82
2021/09/23 05:40:49;;;;;;;6.32;4.85;;;;;;;;;;4996986;28;20183;-82
2021/09/23 05:43:15;;;;;;;7.15;5.65;;;;;;;;;;5015855;28;20195;-81
2021/09/23 05:45:42;;;;;;;6.93;4.77;;;;;;;;;;5003639;28;20227;-82
2021/09/23 05:48:07;;;;;;;7.35;6.30;;;;;;;;;;4993335;28;20455;-82
2021/09/23 05:50:33;;;;;;;5.50;4.97;;;;;;;;;;4996610;28;20194;-82
2021/09/23 05:53:00;;;;;;;5.80;5.00;;;;;;;;;;5000954;28;20537;-82
2021/09/23 05:55:26;;;;;;;10.60;6.00;;;;;;;;;;5001460;28;20462;-83
2021/09/23 05:57:52;;;;;;;6.45;5.45;;;;;;;;;;5002849;28;20179;-82
2021/09/23 06:00:18;;;;;;;7.63;4.40;;;;;;;;;;5002772;28;20198;-82
2021/09/23 06:02:45;;;;;;;8.10;4.95;;;;;;;;;;4999421;28;20442;-82
2021/09/23 06:05:12;;;;;;;6.50;5.32;;;;;;;;;;5000984;28;20187;-82
2021/09/23 06:07:38;;;;;;;7.38;5.45;;;;;;;;;;5015677;28;20210;-82
2021/09/23 06:10:05;;;;;;;8.30;5.50;;;;;;;;;;5011986;28;20184;-82
2021/09/23 06:12:31;;;;;;;5.35;4.80;;;;;;;;;;5003888;28;20198;-81
2021/09/23 06:14:57;;;;;;;5.90;5.10;;;;;;;;;;5001016;28;20242;-82
2021/09/23 06:17:23;;;;;;;6.75;5.25;;;;;;;;;;5000831;28;20179;-81
2021/09/23 06:19:49;;;;;;;6.95;5.72;;;;;;;;;;4999557;28;20644;-81
2021/09/23 06:22:15;;;;;;;11.30;6.43;;;;;;;;;;5015673;28;20187;-83
2021/09/23 06:24:41;;;;;;;7.20;5.70;;;;;;;;;;5003751;28;20640;-82
2021/09/23 06:27:07;;;;;;;6.05;5.45;;;;;;;;;;4999838;28;20469;-82
2021/09/23 06:29:34;;;;;;;7.50;5.90;;;;;;;;;;5002827;28;20187;-82
2021/09/23 06:32:00;;;;;;;8.57;6.10;;;;;;;;;;5001904;28;20190;-82
2021/09/23 06:34:26;;;;;;;6.38;5.65;;;;;;;;;;5002620;28;20237;-82
2021/09/23 06:36:52;;;;;;;7.05;6.35;;;;;;;;;;5017816;28;20232;-81
2021/09/23 06:39:18;;;;;;;7.13;5.75;;;;;;;;;;5000179;28;20186;-81
2021/09/23 06:41:44;;;;;;;6.60;5.60;;;;;;;;;;5000089;28;20187;-82
2021/09/23 06:44:10;;;;;;;8.48;5.80;;;;;;;;;;5001603;28;20198;-81
2021/09/23 06:46:36;;;;;;;7.70;5.95;;;;;;;;;;5001727;28;20203;-81
2021/09/23 06:49:02;;;;;;;6.07;5.20;;;;;;;;;;4999892;28;20186;-81
2021/09/23 06:51:28;;;;;;;7.57;6.35;;;;;;;;;;5002515;28;20175;-81
2021/09/23 06:53:56;;;;;;;6.20;5.53;;;;;;;;;;5001872;28;20187;-81
2021/09/23 06:56:22;;;;;;;7.10;6.45;;;;;;;;;;4999601;28;20175;-81
2021/09/23 06:58:48;;;;;;;7.33;6.23;;;;;;;;;;5002591;28;20198;-81
2021/09/23 07:01:14;;;;;;;6.20;5.60;;;;;;;;;;5018921;28;20960;-80
2021/09/23 07:03:40;;;;;;;8.05;6.00;;;;;;;;;;5006501;28;20501;-80
2021/09/23 07:06:06;;;;;;;9.45;6.63;;;;;;;;;;5004245;28;20269;-82
2021/09/23 07:08:32;;;;;;;15.35;8.25;;;;;;;;;;5003531;28;20185;-81
2021/09/23 07:10:58;;;;;;;18.83;8.45;;;;;;;;;;5000946;28;20175;-81
2021/09/23 07:13:24;;;;;;;15.02;7.97;;;;;;;;;;5001173;28;20191;-81
2021/09/23 07:15:51;;;;;;;10.32;7.38;;;;;;;;;;5000271;28;20226;-81
2021/09/23 07:18:16;;;;;;;14.70;7.43;;;;;;;;;;5003245;28;20202;-80
2021/09/23 07:20:43;;;;;;;11.13;6.30;;;;;;;;;;5004083;28;20191;-81
2021/09/23 07:23:08;;;;;;;7.75;6.57;;;;;;;;;;5001706;28;20529;-82
2021/09/23 07:25:34;;;;;;;11.67;6.40;;;;;;;;;;5006209;28;20235;-81
2021/09/23 07:28:01;;;;;;;13.10;6.90;;;;;;;;;;5005357;28;20442;-82
2021/09/23 07:30:27;;;;;;;10.85;7.80;;;;;;;;;;5007283;28;20179;-82
2021/09/23 07:32:54;;;;;;;16.80;8.10;;;;;;;;;;4996874;28;20183;-80
2021/09/23 07:35:20;;;;;;;10.18;7.70;;;;;;;;;;4997002;28;20419;-81
2021/09/23 07:37:46;;;;;;;10.15;7.60;;;;;;;;;;5003820;28;20201;-82
2021/09/23 07:40:13;;;;;;;7.93;7.20;;;;;;;;;;5019001;28;20191;-82
2021/09/23 07:42:39;;;;;;;12.80;8.13;;;;;;;;;;5021401;28;20188;-81
2021/09/23 07:45:06;;;;;;;9.18;7.72;;;;;;;;;;5004110;28;20238;-81
2021/09/23 07:47:32;;;;;;;10.40;6.90;;;;;;;;;;5003180;28;20271;-81
2021/09/23 07:49:58;;;;;;;13.57;7.07;;;;;;;;;;5001816;28;20189;-81
2021/09/23 07:52:24;;;;;;;8.75;7.43;;;;;;;;;;5003905;28;21000;-81
2021/09/23 07:54:55;;;;;;;10.98;7.60;;;;;;;;;;5005599;28;20187;-80
2021/09/23 07:57:21;;;;;;;11.93;7.97;;;;;;;;;;5004927;28;20192;-81
2021/09/23 07:59:47;;;;;;;11.13;7.00;;;;;;;;;;5003173;28;20192;-81
2021/09/23 08:02:13;;;;;;;11.13;7.10;;;;;;;;;;5003053;28;20193;-81
2021/09/23 08:04:39;;;;;;;10.52;7.60;;;;;;;;;;5018526;28;20512;-81
2021/09/23 08:07:05;;;;;;;7.93;7.00;;;;;;;;;;5002460;28;20235;-81
2021/09/23 08:09:31;;;;;;;9.10;7.30;;;;;;;;;;5005550;28;20429;-81
2021/09/23 08:11:57;;;;;;;10.10;7.20;;;;;;;;;;5002751;28;20835;-81
2021/09/23 08:14:25;;;;;;;8.67;7.17;;;;;;;;;;5001280;28;20453;-81
2021/09/23 08:16:51;;;;;;;9.20;7.70;;;;;;;;;;5018076;28;20439;-81
2021/09/23 08:19:17;;;;;;;6.75;6.05;;;;;;;;;;5018365;28;20664;-81
2021/09/23 08:21:43;;;;;;;10.27;6.32;;;;;;;;;;5005021;28;20169;-80
2021/09/23 08:24:09;;;;;;;7.85;7.05;;;;;;;;;;5003715;28;20550;-81
2021/09/23 08:26:35;;;;;;;7.90;7.10;;;;;;;;;;4997448;28;20217;-81
2021/09/23 08:29:01;;;;;;;13.82;7.13;;;;;;;;;;5002266;28;20456;-81
2021/09/23 08:31:27;;;;;;;9.40;7.22;;;;;;;;;;5017415;28;20562;-81
2021/09/23 08:33:53;;;;;;;8.27;7.00;;;;;;;;;;5005187;28;20189;-81
2021/09/23 08:36:19;;;;;;;7.95;6.05;;;;;;;;;;4997961;28;20778;-81
2021/09/23 08:38:46;;;;;;;8.80;6.60;;;;;;;;;;4995933;28;20186;-81
2021/09/23 08:41:13;;;;;;;8.63;5.95;;;;;;;;;;5002994;28;20204;-81
2021/09/23 08:43:39;;;;;;;10.73;6.72;;;;;;;;;;5017254;28;20213;-81
2021/09/23 08:46:05;;;;;;;6.57;5.88;;;;;;;;;;4997352;28;20234;-81
2021/09/23 08:48:32;;;;;;;10.05;6.78;;;;;;;;;;4999035;28;20179;-81
2021/09/23 08:50:58;;;;;;;6.72;6.03;;;;;;;;;;5002245;28;20183;-81
2021/09/23 08:53:25;;;;;;;12.20;6.85;;;;;;;;;;5017274;28;20198;-81
2021/09/23 08:55:51;;;;;;;6.68;5.70;;;;;;;;;;5003012;28;20190;-81
2021/09/23 08:58:18;;;;;;;8.00;7.28;;;;;;;;;;5017038;28;20247;-81
2021/09/23 09:01:21;;;;;;;7.78;6.15;;;;;;;;;;5030265;28;20191;-81
2021/09/23 09:03:57;;;;;;;7.78;6.68;;;;;;;;;;4963722;28;20182;-81
2021/09/23 09:06:23;;;;;;;7.45;6.75;;;;;;;;;;4953930;29;20300;-82
2021/09/23 09:08:49;;;;;;;7.57;6.43;;;;;;;;;;4944216;29;20270;-82
2021/09/23 09:11:15;;;;;;;12.30;7.63;;;;;;;;;;4957558;28;20867;-81
2021/09/23 09:13:42;;;;;;;6.90;6.20;;;;;;;;;;4962612;28;20212;-81
2021/09/23 09:16:09;;;;;;;9.15;8.25;;;;;;;;;;4963457;28;20193;-81
2021/09/23 09:18:36;;;;;;;8.88;7.68;;;;;;;;;;4960344;29;20196;-81
2021/09/23 09:21:04;;;;;;;12.65;7.75;;;;;;;;;;4963799;28;20200;-81
2021/09/23 09:23:39;;;;;;;8.57;7.63;;;;;;;;;;4963281;29;20204;-80
2021/09/23 09:26:06;;;;;;;12.88;6.97;;;;;;;;;;4963365;28;20272;-81
2021/09/23 09:28:33;;;;;;;7.22;6.53;;;;;;;;;;4962447;29;20184;-81
2021/09/23 09:31:00;;;;;;;8.52;7.35;;;;;;;;;;4963229;28;20224;-81
2021/09/23 09:33:36;;;;;;;9.30;7.68;;;;;;;;;;4953638;29;20191;-81
2021/09/23 09:36:03;;;;;;;9.10;6.97;;;;;;;;;;4947527;29;20256;-81
2021/09/23 09:38:29;;;;;;;10.48;7.57;;;;;;;;;;4987290;28;20200;-83
2021/09/23 09:40:55;;;;;;;9.23;8.27;;;;;;;;;;5001798;28;20187;-82
2021/09/23 09:43:22;;;;;;;8.38;7.57;;;;;;;;;;5000656;28;20192;-82
2021/09/23 09:45:49;;;;;;;10.30;8.00;;;;;;;;;;5003873;28;20227;-81
2021/09/23 09:48:15;;;;;;;8.80;7.55;;;;;;;;;;5003410;28;20182;-81
2021/09/23 09:50:44;;;;;;;11.53;9.10;;;;;;;;;;5001095;28;20183;-81
2021/09/23 09:53:12;;;;;;;10.55;9.45;;;;;;;;;;4996341;28;20474;-82
2021/09/23 09:55:39;;;;;;;8.55;7.07;;;;;;;;;;5000566;28;20172;-81
2021/09/23 09:58:06;;;;;;;13.18;7.95;;;;;;;;;;5001456;28;20202;-82
2021/09/23 10:00:33;;;;;;;10.50;8.90;;;;;;;;;;4997812;28;20194;-81
2021/09/23 10:02:59;;;;;;;9.07;8.23;;;;;;;;;;5001635;28;20179;-82
2021/09/23 10:05:26;;;;;;;9.73;8.80;;;;;;;;;;4994561;28;20565;-81
2021/09/23 10:07:56;;;;;;;9.43;8.43;;;;;;;;;;5001405;28;20179;-82
2021/09/23 10:10:24;;;;;;;9.80;7.82;;;;;;;;;;5016057;28;20188;-82
2021/09/23 10:12:51;;;;;;;9.77;8.77;;;;;;;;;;5017709;28;20185;-81
2021/09/23 10:15:18;;;;;;;9.25;8.27;;;;;;;;;;4995041;28;20187;-82
2021/09/23 10:17:45;;;;;;;11.38;9.13;;;;;;;;;;5008251;28;20226;-81
2021/09/23 10:20:12;;;;;;;9.23;8.25;;;;;;;;;;5000711;28;20189;-82
2021/09/23 10:22:38;;;;;;;9.57;8.45;;;;;;;;;;5000380;28;20179;-81
2021/09/23 10:25:05;;;;;;;9.60;8.60;;;;;;;;;;5016047;28;20274;-81
2021/09/23 10:30:18;;;;;;;8.27;7.57;;;;;;;;;;5003427;28;20205;-81
2021/09/23 10:32:44;;;;;;;9.63;6.93;;;;;;;;;;5001636;28;20187;-81
2021/09/23 10:35:12;;;;;;;7.82;6.40;;;;;;;;;;4999102;28;20258;-82
2021/09/23 10:37:38;;;;;;;9.73;8.07;;;;;;;;;;5001667;28;20231;-80
2021/09/23 10:40:05;;;;;;;8.32;6.82;;;;;;;;;;5016196;28;20744;-83
2021/09/23 10:42:32;;;;;;;8.77;7.60;;;;;;;;;;5000147;28;20207;-83
2021/09/23 10:44:58;;;;;;;10.75;7.20;;;;;;;;;;5004763;28;20214;-81
2021/09/23 10:47:34;;;;;;;9.80;8.73;;;;;;;;;;5007342;28;20237;-81
2021/09/23 10:50:01;;;;;;;8.93;7.75;;;;;;;;;;4997641;28;20242;-81
2021/09/23 10:52:30;;;;;;;9.10;8.15;;;;;;;;;;5001707;28;20176;-81
2021/09/23 10:54:57;;;;;;;10.10;8.95;;;;;;;;;;5001791;28;20278;-81
2021/09/23 10:57:23;;;;;;;11.20;10.05;;;;;;;;;;5016993;28;20237;-81
2021/09/23 10:59:49;;;;;;;10.77;9.00;;;;;;;;;;5001615;28;20191;-81
2021/09/23 11:02:19;;;;;;;11.02;9.77;;;;;;;;;;4999956;28;20484;-83
2021/09/23 11:04:46;;;;;;;9.27;8.15;;;;;;;;;;5000963;28;20183;-81
2021/09/23 11:07:13;;;;;;;11.45;10.15;;;;;;;;;;5000553;28;20216;-81
2021/09/23 11:09:39;;;;;;;14.70;9.80;;;;;;;;;;5017714;28;20179;-79
2021/09/23 11:12:06;;;;;;;14.68;9.07;;;;;;;;;;5000594;28;20183;-81
2021/09/23 11:14:33;;;;;;;9.98;7.82;;;;;;;;;;4993305;28;20188;-81
2021/09/23 11:17:00;;;;;;;11.45;9.10;;;;;;;;;;5000274;28;20187;-81
2021/09/23 11:19:27;;;;;;;10.55;8.43;;;;;;;;;;5000027;28;20239;-81
2021/09/23 11:21:54;;;;;;;9.20;8.13;;;;;;;;;;5017974;28;20176;-80
2021/09/23 11:24:24;;;;;;;9.93;8.57;;;;;;;;;;4988789;28;20665;-81
2021/09/23 11:26:51;;;;;;;10.52;7.57;;;;;;;;;;4997346;28;20297;-80
2021/09/23 11:29:17;;;;;;;13.40;8.15;;;;;;;;;;4997801;28;20200;-81
2021/09/23 11:31:51;;;;;;;7.40;6.60;;;;;;;;;;4998200;28;20189;-81
2021/09/23 11:34:31;;;;;;;7.50;6.60;;;;;;;;;;5001388;28;20212;-81
2021/09/23 11:36:57;;;;;;;7.97;7.18;;;;;;;;;;5000165;28;20189;-81
2021/09/23 11:39:24;;;;;;;9.80;7.90;;;;;;;;;;4995515;28;20261;-82
2021/09/23 11:42:10;;;;;;;9.15;7.60;;;;;;;;;;5000472;28;20480;-83
2021/09/23 11:44:36;;;;;;;9.23;6.95;;;;;;;;;;4998123;28;20249;-81
2021/09/23 11:47:02;;;;;;;8.20;7.30;;;;;;;;;;5003202;28;20763;-81
2021/09/23 11:49:29;;;;;;;8.50;7.60;;;;;;;;;;5004454;28;20641;-80
2021/09/23 11:51:56;;;;;;;7.70;6.90;;;;;;;;;;5000064;28;20401;-83
2021/09/23 11:54:25;;;;;;;9.07;7.47;;;;;;;;;;4999826;28;20505;-81
2021/09/23 11:56:51;;;;;;;9.60;7.13;;;;;;;;;;5001909;28;20430;-82
2021/09/23 11:59:25;;;;;;;9.03;7.27;;;;;;;;;;4997284;28;20449;-82
2021/09/23 12:02:04;;;;;;;8.53;7.20;;;;;;;;;;5008601;28;20851;-81
2021/09/23 12:04:34;;;;;;;7.87;6.63;;;;;;;;;;5017522;28;20518;-81
2021/09/23 12:07:06;;;;;;;8.73;7.57;;;;;;;;;;5004397;28;20493;-81
2021/09/23 12:09:37;;;;;;;7.57;6.37;;;;;;;;;;5006356;28;20423;-82
2021/09/23 12:12:03;;;;;;;8.80;7.80;;;;;;;;;;5002996;28;20416;-82
2021/09/23 12:14:29;;;;;;;9.93;7.47;;;;;;;;;;5002393;28;20495;-83
2021/09/23 12:17:07;;;;;;;7.53;6.73;;;;;;;;;;5004400;28;20799;-83
2021/09/23 12:19:33;;;;;;;8.40;6.50;;;;;;;;;;5019896;28;20413;-82
2021/09/23 12:22:00;;;;;;;8.07;6.90;;;;;;;;;;5003738;28;20439;-82
2021/09/23 12:24:37;;;;;;;9.67;8.07;;;;;;;;;;5005868;28;20433;-79
2021/09/23 12:27:04;;;;;;;8.40;7.67;;;;;;;;;;4995670;28;20477;-81
2021/09/23 12:29:30;;;;;;;8.27;7.47;;;;;;;;;;4997669;28;20479;-81
2021/09/23 12:32:07;;;;;;;10.20;7.50;;;;;;;;;;5002510;28;20434;-84
2021/09/23 12:34:53;;;;;;;8.17;7.37;;;;;;;;;;5017783;28;20452;-83
2021/09/23 12:37:22;;;;;;;7.43;6.73;;;;;;;;;;5002456;28;20442;-83
2021/09/23 12:39:48;;;;;;;8.37;7.00;;;;;;;;;;5020031;28;20795;-81
2021/09/23 12:42:18;;;;;;;6.50;5.90;;;;;;;;;;5002058;28;20431;-81
2021/09/23 12:45:04;;;;;;;6.40;5.80;;;;;;;;;;5000025;28;20524;-83
2021/09/23 12:47:31;;;;;;;8.67;7.83;;;;;;;;;;5001730;28;20503;-82
2021/09/23 12:50:05;;;;;;;7.33;6.37;;;;;;;;;;4998019;28;20522;-82
2021/09/23 12:52:36;;;;;;;7.23;6.53;;;;;;;;;;4999544;28;20437;-80
2021/09/23 12:55:03;;;;;;;6.87;6.27;;;;;;;;;;5002467;28;20518;-80
2021/09/23 12:57:35;;;;;;;6.13;5.63;;;;;;;;;;5002791;28;20438;-80
2021/09/23 13:00:09;;;;;;;6.60;6.00;;;;;;;;;;5003852;28;20947;-80
2021/09/23 13:02:35;;;;;;;8.50;6.80;;;;;;;;;;5001708;28;20801;-80
2021/09/23 13:05:09;;;;;;;5.40;5.00;;;;;;;;;;5000856;28;20712;-81
2021/09/23 13:07:42;;;;;;;5.93;5.50;;;;;;;;;;5002895;28;20429;-82
2021/09/23 13:10:13;;;;;;;5.83;5.43;;;;;;;;;;4996873;28;20434;-80
2021/09/23 13:12:42;;;;;;;7.57;6.70;;;;;;;;;;5002918;28;20465;-78
2021/09/23 13:15:14;;;;;;;7.93;6.00;;;;;;;;;;5004123;28;20441;-81
2021/09/23 13:17:40;;;;;;;5.43;4.93;;;;;;;;;;5002667;28;20438;-81
2021/09/23 13:20:07;;;;;;;5.57;5.07;;;;;;;;;;5000816;28;20443;-81
2021/09/23 13:22:33;;;;;;;4.50;4.20;;;;;;;;;;5000331;28;20986;-79
2021/09/23 13:24:59;;;;;;;5.30;4.90;;;;;;;;;;5001900;28;20445;-81
2021/09/23 13:27:25;;;;;;;6.03;5.43;;;;;;;;;;5004273;28;20492;-80
2021/09/23 13:29:51;;;;;;;6.27;5.50;;;;;;;;;;5001759;28;20510;-80
2021/09/23 13:32:17;;;;;;;5.33;4.87;;;;;;;;;;5003023;28;20434;-80
2021/09/23 13:34:43;;;;;;;5.50;5.00;;;;;;;;;;5003140;28;20516;-81
2021/09/23 13:37:09;;;;;;;5.73;5.33;;;;;;;;;;5001912;28;20780;-82
2021/09/23 13:39:35;;;;;;;6.00;5.50;;;;;;;;;;5004790;28;20457;-80
2021/09/23 13:42:01;;;;;;;6.13;5.70;;;;;;;;;;5001131;28;20914;-81
2021/09/23 13:44:27;;;;;;;6.40;5.87;;;;;;;;;;5000159;28;20893;-79
2021/09/23 13:46:53;;;;;;;5.90;5.50;;;;;;;;;;5001360;28;20473;-80
2021/09/23 13:49:19;;;;;;;6.00;5.60;;;;;;;;;;5016239;28;20482;-81
2021/09/23 13:51:45;;;;;;;6.10;5.70;;;;;;;;;;5004114;28;20430;-80
2021/09/23 13:54:11;;;;;;;6.93;6.43;;;;;;;;;;5003652;28;20446;-81
2021/09/23 13:56:37;;;;;;;6.50;6.10;;;;;;;;;;5000783;28;20492;-81
2021/09/23 13:59:03;;;;;;;6.10;5.60;;;;;;;;;;5002356;28;20500;-79
2021/09/23 14:01:29;;;;;;;6.13;5.73;;;;;;;;;;5001029;28;20436;-79
2021/09/23 14:03:55;;;;;;;6.93;5.03;;;;;;;;;;5003604;28;20430;-80
2021/09/23 14:06:21;;;;;;;5.37;5.00;;;;;;;;;;5004605;28;20462;-79
2021/09/23 14:08:47;;;;;;;7.57;5.50;;;;;;;;;;5001499;28;20434;-80
2021/09/23 14:11:13;;;;;;;4.73;4.40;;;;;;;;;;5000026;28;20426;-80
2021/09/23 14:13:39;;;;;;;5.13;4.73;;;;;;;;;;5002247;28;20441;-81
2021/09/23 14:16:05;;;;;;;5.10;4.70;;;;;;;;;;4997818;28;20790;-80
2021/09/23 14:18:31;;;;;;;4.37;3.90;;;;;;;;;;4999768;28;20461;-79
2021/09/23 14:20:57;;;;;;;4.97;4.20;;;;;;;;;;5001297;28;20441;-79
2021/09/23 14:23:24;;;;;;;4.63;4.23;;;;;;;;;;5001491;28;20442;-79
2021/09/23 14:25:50;;;;;;;5.00;4.03;;;;;;;;;;4997884;28;20469;-78
2021/09/23 14:28:16;;;;;;;4.37;4.07;;;;;;;;;;5001401;28;20876;-81
2021/09/23 14:30:42;;;;;;;3.67;3.37;;;;;;;;;;5003798;28;20703;-79
2021/09/23 14:33:09;;;;;;;3.53;3.27;;;;;;;;;;5002079;28;20446;-78
2021/09/23 14:35:37;;;;;;;4.23;3.70;;;;;;;;;;5021947;28;20455;-78
2021/09/23 14:38:04;;;;;;;4.80;3.30;;;;;;;;;;5000442;28;20448;-78
2021/09/23 14:40:34;;;;;;;5.20;4.00;;;;;;;;;;5001321;28;20451;-78
2021/09/23 14:43:00;;;;;;;3.40;2.90;;;;;;;;;;5017283;28;20490;-79